createdAt,value
2019-02-24T00:02:09.446Z,57.89
2019-02-24T00:04:40.890Z,57.30
2019-02-24T00:07:12.490Z,57.91
2019-02-24T00:09:43.790Z,57.01
2019-02-24T00:12:15.012Z,58.04
2019-02-24T00:14:47.003Z,57.24
2019-02-24T00:17:18.691Z,57.75
2019-02-24T00:19:50.010Z,58.09
2019-02-24T00:22:21.852Z,57.76
2019-02-24T00:24:52.598Z,57.13
2019-02-24T00:27:24.050Z,56.99
2019-02-24T00:29:55.278Z,57.07
2019-02-24T00:32:26.769Z,57.13
2019-02-24T00:34:59.238Z,56.49
2019-02-24T00:37:30.932Z,56.37
2019-02-24T00:40:02.339Z,56.58
2019-02-24T00:42:33.790Z,55.88
2019-02-24T00:45:06.510Z,56.16
2019-02-24T00:47:37.872Z,56.08
2019-02-24T00:50:10.088Z,56.41
2019-02-24T00:52:41.914Z,56.15
2019-02-24T00:55:13.230Z,56.61
2019-02-24T00:57:44.632Z,56.83
2019-02-24T01:00:15.847Z,56.83
2019-02-24T01:02:47.277Z,57.28
2019-02-24T01:05:19.952Z,57.04
2019-02-24T01:07:51.410Z,57.37
2019-02-24T01:10:22.650Z,57.60
2019-02-24T01:12:53.974Z,57.34
2019-02-24T01:15:25.247Z,58.16
2019-02-24T01:17:56.950Z,57.34
2019-02-24T01:20:28.865Z,57.21
2019-02-24T01:23:00.038Z,57.42
2019-02-24T01:25:31.250Z,57.05
2019-02-24T01:28:03.043Z,56.72
2019-02-24T01:30:34.181Z,57.65
2019-02-24T01:33:04.952Z,57.79
2019-02-24T01:35:37.350Z,57.73
2019-02-24T01:38:08.950Z,57.53
2019-02-24T01:40:40.691Z,57.82
2019-02-24T01:43:11.630Z,57.18
2019-02-24T01:45:42.705Z,57.62
2019-02-24T01:48:14.284Z,56.95
2019-02-24T01:50:46.652Z,57.09
2019-02-24T01:53:18.266Z,58.23
2019-02-24T01:55:48.752Z,58.05
2019-02-24T01:58:19.892Z,58.37
2019-02-24T02:00:51.022Z,59.01
2019-02-24T02:03:22.451Z,59.87
2019-02-24T02:05:53.082Z,58.87
2019-02-24T02:08:24.417Z,58.34
2019-02-24T02:10:55.752Z,59.04
2019-02-24T02:13:26.457Z,58.19
2019-02-24T02:15:57.717Z,58.99
2019-02-24T02:18:29.825Z,58.22
2019-02-24T02:21:01.362Z,58.59
2019-02-24T02:23:32.297Z,58.63
2019-02-24T02:26:03.077Z,59.07
2019-02-24T02:28:34.351Z,58.58
2019-02-24T02:31:05.414Z,59.04
2019-02-24T02:33:38.162Z,58.52
2019-02-24T02:36:09.778Z,58.85
2019-02-24T02:38:41.937Z,59.08
2019-02-24T02:41:13.122Z,59.79
2019-02-24T02:43:44.341Z,59.30
2019-02-24T02:46:16.172Z,59.68
2019-02-24T02:48:47.123Z,59.39
2019-02-24T02:51:18.257Z,59.36
2019-02-24T02:53:49.541Z,60.01
2019-02-24T02:56:23.487Z,60.74
2019-02-24T02:58:54.945Z,60.53
2019-02-24T03:01:26.163Z,60.61
2019-02-24T03:03:57.096Z,59.95
2019-02-24T03:06:29.948Z,60.39
2019-02-24T03:09:01.042Z,60.43
2019-02-24T03:11:33.024Z,62.10
2019-02-24T03:14:04.298Z,62.10
2019-02-24T03:16:35.187Z,61.39
2019-02-24T03:19:07.149Z,62.09
2019-02-24T03:21:38.228Z,62.25
2019-02-24T03:24:09.017Z,62.25
2019-02-24T03:26:39.643Z,61.83
2019-02-24T03:29:10.490Z,61.32
2019-02-24T03:31:42.254Z,61.57
2019-02-24T03:34:13.514Z,61.61
2019-02-24T03:36:45.284Z,61.61
2019-02-24T03:39:16.028Z,61.64
2019-02-24T03:41:47.342Z,61.83
2019-02-24T03:44:19.082Z,62.54
2019-02-24T03:46:50.592Z,62.73
2019-02-24T03:49:21.667Z,62.73
2019-02-24T03:51:53.031Z,62.62
2019-02-24T03:54:24.103Z,62.62
2019-02-24T03:56:55.455Z,62.21
2019-02-24T03:59:26.534Z,62.24
2019-02-24T04:01:57.416Z,61.80
2019-02-24T04:04:28.606Z,61.74
2019-02-24T04:06:59.574Z,62.13
2019-02-24T04:09:30.902Z,62.14
2019-02-24T04:12:01.977Z,62.53
2019-02-24T04:14:34.227Z,62.07
2019-02-24T04:17:05.305Z,62.60
2019-02-24T04:19:36.469Z,62.72
2019-02-24T04:22:07.325Z,63.55
2019-02-24T04:24:38.050Z,62.78
2019-02-24T04:27:09.379Z,63.64
2019-02-24T04:29:40.867Z,62.88
2019-02-24T04:32:12.177Z,62.24
2019-02-24T04:34:43.062Z,61.57
2019-02-24T04:37:14.498Z,61.76
2019-02-24T04:39:45.777Z,61.24
2019-02-24T04:42:17.378Z,62.11
2019-02-24T04:44:49.342Z,62.11
2019-02-24T04:47:21.332Z,62.92
2019-02-24T04:49:53.180Z,62.53
2019-02-24T04:52:25.129Z,62.80
2019-02-24T04:54:56.494Z,62.12
2019-02-24T04:57:27.717Z,61.60
2019-02-24T04:59:59.370Z,61.78
2019-02-24T05:02:30.699Z,62.58
2019-02-24T05:05:01.468Z,62.71
2019-02-24T05:07:33.328Z,61.94
2019-02-24T05:10:05.736Z,60.62
2019-02-24T05:12:37.128Z,61.19
2019-02-24T05:15:08.201Z,61.37
2019-02-24T05:17:42.785Z,61.71
2019-02-24T05:20:14.489Z,61.72
2019-02-24T05:22:45.647Z,61.45
2019-02-24T05:25:17.060Z,61.41
2019-02-24T05:27:51.500Z,60.87
2019-02-24T05:30:23.200Z,61.06
2019-02-24T05:32:54.340Z,61.06
2019-02-24T05:35:25.584Z,60.73
2019-02-24T05:37:57.080Z,60.85
2019-02-24T05:40:29.511Z,62.13
2019-02-24T05:43:00.680Z,62.50
2019-02-24T05:45:32.539Z,61.02
2019-02-24T05:48:04.330Z,60.96
2019-02-24T05:50:36.381Z,60.82
2019-02-24T05:53:08.462Z,61.23
2019-02-24T05:55:40.742Z,61.23
2019-02-24T05:58:13.213Z,60.98
2019-02-24T06:00:44.898Z,61.22
2019-02-24T06:03:18.367Z,62.00
2019-02-24T06:05:49.137Z,62.00
2019-02-24T06:08:21.211Z,61.94
2019-02-24T06:10:52.511Z,61.96
2019-02-24T06:13:23.779Z,61.73
2019-02-24T06:15:54.986Z,61.60
2019-02-24T06:18:26.757Z,61.87
2019-02-24T06:20:58.115Z,61.43
2019-02-24T06:23:29.584Z,62.59
2019-02-24T06:26:01.682Z,62.80
2019-02-24T06:28:33.513Z,61.96
2019-02-24T06:31:06.335Z,62.07
2019-02-24T06:33:37.795Z,62.44
2019-02-24T06:36:08.765Z,61.78
2019-02-24T06:38:40.264Z,61.86
2019-02-24T06:41:11.705Z,61.98
2019-02-24T06:43:43.282Z,60.21
2019-02-24T06:46:15.006Z,60.92
2019-02-24T06:48:47.351Z,60.97
2019-02-24T06:51:18.744Z,60.87
2019-02-24T06:53:49.586Z,60.83
2019-02-24T06:56:20.861Z,60.35
2019-02-24T06:58:52.186Z,60.32
2019-02-24T07:01:23.559Z,60.39
2019-02-24T07:03:55.092Z,60.12
2019-02-24T07:06:26.853Z,60.50
2019-02-24T07:08:57.560Z,60.45
2019-02-24T07:11:29.213Z,60.48
2019-02-24T07:14:00.758Z,60.72
2019-02-24T07:16:31.867Z,59.88
2019-02-24T07:19:03.657Z,59.98
2019-02-24T07:21:35.222Z,60.04
2019-02-24T07:24:06.734Z,60.37
2019-02-24T07:26:38.822Z,60.63
2019-02-24T07:29:10.304Z,59.26
2019-02-24T07:31:42.262Z,59.34
2019-02-24T07:34:13.217Z,59.46
2019-02-24T07:36:44.395Z,59.40
2019-02-24T07:39:16.333Z,59.37
2019-02-24T07:41:47.919Z,59.56
2019-02-24T07:44:19.116Z,59.39
2019-02-24T07:46:50.435Z,59.25
2019-02-24T07:49:21.849Z,59.12
2019-02-24T07:51:53.581Z,58.79
2019-02-24T07:54:24.954Z,59.29
2019-02-24T07:56:56.236Z,59.22
2019-02-24T07:59:27.648Z,59.33
2019-02-24T08:01:58.867Z,59.33
2019-02-24T08:04:30.598Z,58.84
2019-02-24T08:07:02.106Z,58.98
2019-02-24T08:09:34.818Z,59.45
2019-02-24T08:12:05.983Z,59.04
2019-02-24T08:14:37.263Z,59.20
2019-02-24T08:17:08.450Z,59.01
2019-02-24T08:19:39.649Z,58.25
2019-02-24T08:22:12.098Z,57.64
2019-02-24T08:24:43.155Z,58.02
2019-02-24T08:27:15.274Z,57.25
2019-02-24T08:29:46.609Z,57.48
2019-02-24T08:32:18.465Z,57.46
2019-02-24T08:34:50.098Z,57.42
2019-02-24T08:37:21.885Z,56.66
2019-02-24T08:39:53.946Z,56.98
2019-02-24T08:42:25.969Z,56.95
2019-02-24T08:44:57.579Z,57.28
2019-02-24T08:47:28.604Z,56.15
2019-02-24T08:50:00.596Z,56.35
2019-02-24T08:52:32.847Z,56.35
2019-02-24T08:55:03.660Z,55.65
2019-02-24T08:57:35.262Z,55.44
2019-02-24T09:00:11.067Z,54.66
2019-02-24T09:02:42.400Z,54.86
2019-02-24T09:05:13.857Z,53.87
2019-02-24T09:07:45.629Z,53.60
2019-02-24T09:10:18.286Z,53.18
2019-02-24T09:12:49.729Z,52.26
2019-02-24T09:15:21.582Z,51.32
2019-02-24T09:17:53.092Z,51.25
2019-02-24T09:20:23.989Z,50.62
2019-02-24T09:22:55.423Z,50.20
2019-02-24T09:25:26.656Z,49.57
2019-02-24T09:27:59.326Z,47.64
2019-02-24T09:30:31.324Z,47.75
2019-02-24T09:33:02.316Z,47.81
2019-02-24T09:35:33.913Z,47.77
2019-02-24T09:38:05.193Z,46.22
2019-02-24T09:40:36.481Z,45.12
2019-02-24T09:43:07.582Z,45.37
2019-02-24T09:45:39.647Z,46.18
2019-02-24T09:48:11.142Z,44.68
2019-02-24T09:50:43.064Z,44.27
2019-02-24T09:53:16.344Z,45.23
2019-02-24T09:55:47.109Z,44.30
2019-02-24T09:58:18.202Z,44.25
2019-02-24T10:00:50.431Z,44.36
2019-02-24T10:03:22.327Z,43.77
2019-02-24T10:05:53.619Z,43.14
2019-02-24T10:08:26.101Z,42.99
2019-02-24T10:10:59.405Z,43.27
2019-02-24T10:13:30.828Z,42.97
2019-02-24T10:16:03.006Z,43.25
2019-02-24T10:18:33.786Z,43.14
2019-02-24T10:21:05.494Z,44.07
2019-02-24T10:23:37.888Z,44.25
2019-02-24T10:26:09.412Z,44.21
2019-02-24T10:28:40.735Z,44.14
2019-02-24T10:31:19.604Z,44.84
2019-02-24T10:33:45.589Z,45.36
2019-02-24T10:36:17.692Z,44.94
2019-02-24T10:38:52.581Z,44.43
2019-02-24T10:41:24.733Z,45.46
2019-02-24T10:43:56.675Z,43.77
2019-02-24T10:46:28.418Z,43.05
2019-02-24T10:49:03.681Z,42.85
2019-02-24T10:51:34.077Z,42.01
2019-02-24T10:54:05.620Z,41.02
2019-02-24T10:56:37.538Z,41.10
2019-02-24T10:59:07.878Z,39.87
2019-02-24T11:01:38.129Z,37.28
2019-02-24T11:04:08.432Z,36.98
2019-02-24T11:06:39.405Z,34.73
2019-02-24T11:09:11.577Z,35.40
2019-02-24T11:11:43.816Z,34.86
2019-02-24T11:14:15.395Z,35.28
2019-02-24T11:16:46.628Z,35.33
2019-02-24T11:19:18.497Z,34.91
2019-02-24T11:21:49.614Z,36.06
2019-02-24T11:24:20.933Z,34.99
2019-02-24T11:26:52.220Z,35.81
2019-02-24T11:29:24.464Z,35.50
2019-02-24T11:31:57.973Z,34.60
2019-02-24T11:34:29.615Z,34.27
2019-02-24T11:37:01.658Z,33.33
2019-02-24T11:39:33.278Z,33.47
2019-02-24T11:42:04.718Z,33.81
2019-02-24T11:44:38.385Z,33.98
2019-02-24T11:47:09.878Z,32.52
2019-02-24T11:49:41.814Z,32.47
2019-02-24T11:52:12.708Z,31.14
2019-02-24T11:54:45.545Z,31.01
2019-02-24T11:57:17.418Z,30.52
2019-02-24T11:59:48.500Z,30.62
2019-02-24T12:02:20.036Z,30.63
2019-02-24T12:04:50.956Z,31.15
2019-02-24T12:07:22.776Z,31.17
2019-02-24T12:09:53.575Z,30.93
2019-02-24T12:12:24.490Z,31.27
2019-02-24T12:14:55.265Z,30.72
2019-02-24T12:17:26.992Z,31.44
2019-02-24T12:20:00.428Z,31.73
2019-02-24T12:22:31.072Z,31.98
2019-02-24T12:25:01.328Z,32.10
2019-02-24T12:27:32.865Z,32.34
2019-02-24T12:30:03.215Z,32.25
2019-02-24T12:32:33.567Z,33.28
2019-02-24T12:35:04.430Z,32.64
2019-02-24T12:37:35.370Z,32.59
2019-02-24T12:40:09.290Z,33.27
2019-02-24T12:42:40.656Z,33.34
2019-02-24T12:45:12.027Z,33.06
2019-02-24T12:47:42.342Z,34.01
2019-02-24T12:50:14.501Z,33.48
2019-02-24T12:52:45.852Z,34.30
2019-02-24T12:55:16.127Z,33.79
2019-02-24T12:57:46.465Z,33.93
2019-02-24T13:00:20.495Z,34.02
2019-02-24T13:02:51.490Z,34.42
2019-02-24T13:05:21.766Z,34.24
2019-02-24T13:07:52.031Z,32.98
2019-02-24T13:10:22.339Z,34.61
2019-02-24T13:12:52.758Z,32.47
2019-02-24T13:15:23.565Z,33.77
2019-02-24T13:17:55.655Z,31.85
2019-02-24T13:20:26.715Z,30.67
2019-02-24T13:22:58.675Z,30.17
2019-02-24T13:25:30.543Z,30.39
2019-02-24T13:28:01.816Z,31.11
2019-02-24T13:30:32.940Z,30.40
2019-02-24T13:33:04.888Z,30.34
2019-02-24T13:35:36.380Z,30.73
2019-02-24T13:38:07.227Z,30.05
2019-02-24T13:40:39.353Z,30.74
2019-02-24T13:43:11.681Z,30.18
2019-02-24T13:45:42.820Z,30.18
2019-02-24T13:48:14.490Z,30.42
2019-02-24T13:50:46.451Z,30.24
2019-02-24T13:53:17.397Z,31.56
2019-02-24T13:55:48.454Z,31.09
2019-02-24T13:58:21.658Z,30.66
2019-02-24T14:00:54.822Z,30.38
2019-02-24T14:03:30.235Z,30.16
2019-02-24T14:06:01.640Z,29.50
2019-02-24T14:08:33.581Z,29.66
2019-02-24T14:11:04.634Z,29.73
2019-02-24T14:13:36.531Z,29.48
2019-02-24T14:16:07.454Z,29.55
2019-02-24T14:18:39.067Z,28.88
2019-02-24T14:21:10.478Z,27.10
2019-02-24T14:23:41.672Z,27.99
2019-02-24T14:26:13.925Z,28.99
2019-02-24T14:28:45.282Z,29.08
2019-02-24T14:31:17.501Z,28.36
2019-02-24T14:33:48.556Z,28.75
2019-02-24T14:36:19.909Z,28.41
2019-02-24T14:38:51.807Z,28.54
2019-02-24T14:41:22.708Z,28.33
2019-02-24T14:43:54.566Z,28.69
2019-02-24T14:46:25.986Z,28.68
2019-02-24T14:48:57.222Z,29.04
2019-02-24T14:51:29.177Z,28.94
2019-02-24T14:54:00.718Z,28.98
2019-02-24T14:56:33.117Z,29.44
2019-02-24T14:59:05.593Z,30.11
2019-02-24T15:01:37.440Z,29.76
2019-02-24T15:04:10.116Z,29.49
2019-02-24T15:06:41.657Z,29.96
2019-02-24T15:09:13.147Z,30.45
2019-02-24T15:11:45.174Z,30.72
2019-02-24T15:14:16.503Z,29.07
2019-02-24T15:16:47.951Z,29.70
2019-02-24T15:19:19.632Z,29.51
2019-02-24T15:21:51.940Z,29.56
2019-02-24T15:24:23.890Z,29.98
2019-02-24T15:26:56.833Z,30.65
2019-02-24T15:29:28.730Z,30.57
2019-02-24T15:32:00.288Z,31.68
2019-02-24T15:34:31.618Z,32.77
2019-02-24T15:37:03.150Z,31.34
2019-02-24T15:39:35.795Z,30.71
2019-02-24T15:42:08.226Z,31.18
2019-02-24T15:44:38.968Z,31.33
2019-02-24T15:47:10.192Z,31.90
2019-02-24T15:49:41.870Z,32.78
2019-02-24T15:52:13.757Z,34.51
2019-02-24T15:54:45.508Z,34.70
2019-02-24T15:57:17.786Z,35.75
2019-02-24T15:59:48.985Z,35.26
2019-02-24T16:02:21.127Z,36.13
2019-02-24T16:04:52.906Z,37.15
2019-02-24T16:07:24.723Z,38.61
2019-02-24T16:09:55.074Z,38.43
2019-02-24T16:12:25.430Z,37.34
2019-02-24T16:14:55.779Z,38.76
2019-02-24T16:17:26.116Z,42.01
2019-02-24T16:19:56.792Z,42.78
2019-02-24T16:22:27.247Z,42.69
2019-02-24T16:24:57.510Z,45.11
2019-02-24T16:27:27.851Z,45.99
2019-02-24T16:29:58.141Z,45.74
2019-02-24T16:32:28.479Z,45.27
2019-02-24T16:34:58.945Z,45.94
2019-02-24T16:37:29.190Z,46.07
2019-02-24T16:39:59.473Z,48.02
2019-02-24T16:42:30.304Z,47.72
2019-02-24T16:45:01.344Z,47.27
2019-02-24T16:47:33.184Z,49.03
2019-02-24T16:50:06.833Z,49.68
2019-02-24T16:52:37.581Z,48.19
2019-02-24T16:55:10.533Z,45.88
2019-02-24T16:57:40.971Z,48.89
2019-02-24T17:00:14.816Z,49.98
2019-02-24T17:02:45.661Z,49.96
2019-02-24T17:05:16.026Z,51.12
2019-02-24T17:07:46.383Z,51.82
2019-02-24T17:10:19.466Z,52.53
2019-02-24T17:12:50.335Z,53.22
2019-02-24T17:15:21.700Z,54.13
2019-02-24T17:17:52.014Z,54.22
2019-02-24T17:20:24.521Z,54.82
2019-02-24T17:22:54.930Z,54.85
2019-02-24T17:25:25.204Z,55.42
2019-02-24T17:27:55.572Z,55.83
2019-02-24T17:30:26.929Z,56.39
2019-02-24T17:32:57.203Z,56.59
2019-02-24T17:35:27.511Z,57.82
2019-02-24T17:37:58.337Z,57.99
2019-02-24T17:40:28.687Z,57.74
2019-02-24T17:42:59.200Z,57.98
2019-02-24T17:45:29.539Z,58.95
2019-02-24T17:47:59.976Z,59.14
2019-02-24T17:50:30.529Z,58.70
2019-02-24T17:53:00.828Z,59.35
2019-02-24T17:55:31.176Z,59.07
2019-02-24T17:58:01.656Z,59.94
2019-02-24T18:00:33.672Z,60.38
2019-02-24T18:03:04.904Z,59.14
2019-02-24T18:05:36.712Z,60.07
2019-02-24T18:08:08.798Z,60.09
2019-02-24T18:10:39.916Z,60.00
2019-02-24T18:13:11.344Z,59.72
2019-02-24T18:15:42.358Z,60.17
2019-02-24T18:18:12.643Z,59.98
2019-02-24T18:20:43.576Z,60.47
2019-02-24T18:23:14.322Z,60.59
2019-02-24T18:25:44.675Z,59.85
2019-02-24T18:28:15.060Z,60.28
2019-02-24T18:30:45.470Z,60.61
2019-02-24T18:33:17.004Z,61.61
2019-02-24T18:35:47.669Z,61.20
2019-02-24T18:38:17.972Z,61.18
2019-02-24T18:40:48.269Z,62.00
2019-02-24T18:43:18.769Z,60.85
2019-02-24T18:45:49.071Z,61.98
2019-02-24T18:48:19.775Z,61.84
2019-02-24T18:50:52.287Z,60.31
2019-02-24T18:53:25.510Z,60.95
2019-02-24T18:55:57.965Z,61.19
2019-02-24T18:58:30.351Z,61.38
2019-02-24T19:01:05.175Z,62.37
2019-02-24T19:03:37.456Z,62.27
2019-02-24T19:06:08.602Z,60.59
2019-02-24T19:08:39.162Z,62.41
2019-02-24T19:11:10.136Z,62.59
2019-02-24T19:13:42.382Z,62.57
2019-02-24T19:16:13.224Z,63.89
2019-02-24T19:18:46.482Z,63.75
2019-02-24T19:21:18.294Z,63.54
2019-02-24T19:23:50.038Z,63.39
2019-02-24T19:26:20.345Z,63.68
2019-02-24T19:28:51.097Z,64.92
2019-02-24T19:31:22.443Z,65.22
2019-02-24T19:33:54.116Z,64.81
2019-02-24T19:36:25.543Z,63.89
2019-02-24T19:38:56.165Z,64.33
2019-02-24T19:41:27.103Z,64.58
2019-02-24T19:43:59.049Z,64.75
2019-02-24T19:46:30.984Z,64.06
2019-02-24T19:49:03.063Z,64.13
2019-02-24T19:51:34.435Z,61.59
2019-02-24T19:54:06.863Z,63.18
2019-02-24T19:56:39.138Z,57.76
2019-02-24T19:59:10.824Z,55.09
2019-02-24T20:01:42.123Z,57.08
2019-02-24T20:04:16.281Z,52.55
2019-02-24T20:06:46.933Z,49.89
2019-02-24T20:09:18.675Z,48.96
2019-02-24T20:11:49.523Z,49.64
2019-02-24T20:14:20.963Z,49.57
2019-02-24T20:16:52.881Z,49.16
2019-02-24T20:19:25.187Z,49.60
2019-02-24T20:22:01.984Z,48.74
2019-02-24T20:24:33.772Z,50.52
2019-02-24T20:27:06.736Z,50.06
2019-02-24T20:29:38.102Z,51.63
2019-02-24T20:32:09.220Z,49.90
2019-02-24T20:34:40.447Z,49.97
2019-02-24T20:37:11.523Z,54.39
2019-02-24T20:39:43.222Z,53.81
2019-02-24T20:42:14.804Z,56.58
2019-02-24T20:44:46.356Z,53.23
2019-02-24T20:47:18.484Z,54.91
2019-02-24T20:49:51.224Z,55.77
2019-02-24T20:52:22.941Z,56.70
2019-02-24T20:54:54.164Z,52.97
2019-02-24T20:57:25.524Z,51.27
2019-02-24T20:59:56.042Z,50.63
2019-02-24T21:02:26.610Z,53.54
2019-02-24T21:04:58.638Z,49.39
2019-02-24T21:07:30.580Z,54.54
2019-02-24T21:10:02.049Z,56.00
2019-02-24T21:12:32.892Z,55.69
2019-02-24T21:15:05.141Z,56.36
2019-02-24T21:17:36.576Z,53.54
2019-02-24T21:20:10.722Z,55.78
2019-02-24T21:22:42.183Z,56.00
2019-02-24T21:25:13.698Z,55.52
2019-02-24T21:27:44.271Z,56.22
2019-02-24T21:30:17.069Z,58.66
2019-02-24T21:32:48.902Z,58.29
2019-02-24T21:35:21.122Z,60.25
2019-02-24T21:37:53.282Z,57.44
2019-02-24T21:40:27.205Z,59.46
2019-02-24T21:43:05.225Z,59.71
2019-02-24T21:45:37.002Z,58.94
2019-02-24T21:48:08.275Z,58.75
2019-02-24T21:50:39.725Z,58.04
2019-02-24T21:53:10.933Z,58.82
2019-02-24T21:55:43.657Z,60.96
2019-02-24T21:58:14.828Z,60.99
2019-02-24T22:00:47.085Z,61.05
2019-02-24T22:03:23.335Z,60.85
2019-02-24T22:05:56.712Z,60.98
2019-02-24T22:08:27.013Z,60.51
2019-02-24T22:10:58.288Z,62.42
2019-02-24T22:13:29.906Z,62.61
2019-02-24T22:16:01.644Z,61.42
2019-02-24T22:18:35.502Z,61.28
2019-02-24T22:21:07.701Z,61.14
2019-02-24T22:23:38.627Z,61.08
2019-02-24T22:26:09.501Z,60.51
2019-02-24T22:28:40.704Z,60.54
2019-02-24T22:31:12.068Z,61.65
2019-02-24T22:33:43.388Z,63.39
2019-02-24T22:36:13.850Z,65.35
2019-02-24T22:38:44.642Z,66.48
2019-02-24T22:41:15.683Z,67.81
2019-02-24T22:43:47.676Z,65.39
2019-02-24T22:46:19.346Z,66.80
2019-02-24T22:48:50.855Z,67.11
2019-02-24T22:51:23.086Z,67.34
2019-02-24T22:53:54.486Z,65.01
2019-02-24T22:56:25.089Z,66.87
2019-02-24T22:58:57.303Z,65.92
2019-02-24T23:01:28.754Z,64.56
2019-02-24T23:04:04.964Z,62.74
2019-02-24T23:06:36.921Z,61.42
2019-02-24T23:09:09.511Z,62.69
2019-02-24T23:11:41.755Z,64.75
2019-02-24T23:14:12.568Z,64.42
2019-02-24T23:16:43.374Z,64.18
2019-02-24T23:19:15.574Z,63.75
2019-02-24T23:21:46.368Z,66.06
2019-02-24T23:24:17.030Z,62.52
2019-02-24T23:26:48.303Z,62.03
2019-02-24T23:29:20.401Z,63.58
2019-02-24T23:31:51.611Z,65.07
2019-02-24T23:34:22.701Z,64.86
2019-02-24T23:36:53.629Z,65.11
2019-02-24T23:39:24.128Z,63.93
2019-02-24T23:41:55.586Z,63.07
2019-02-24T23:44:26.401Z,62.32
2019-02-24T23:46:57.866Z,62.16
2019-02-24T23:49:29.060Z,62.57
2019-02-24T23:51:59.873Z,60.46
2019-02-24T23:54:30.872Z,61.67
2019-02-24T23:57:01.663Z,61.44
2019-02-24T23:59:32.612Z,62.19
